Time;durP1;ratioP1;P1;durP2;ratioP2;P2;SDS_P1;SDS_P2;PMS_P1;PMS_P2;Temp;Humidity;BMP_temperature;BMP_pressure;BME280_temperature;BME280_humidity;BME280_pressure;Samples;Min_cycle;Max_cycle;Signal;HPM_P1;HPM_P2
2021/05/16 00:01:03;;;;;;;0.70;0.70;;;;;;;;;;5007690;28;20415;-74
2021/05/16 00:03:28;;;;;;;0.60;0.60;;;;;;;;;;5023951;28;20025;-75
2021/05/16 00:05:53;;;;;;;0.60;0.60;;;;;;;;;;5009661;28;20049;-75
2021/05/16 00:08:18;;;;;;;0.60;0.60;;;;;;;;;;5009849;28;20026;-76
2021/05/16 00:10:44;;;;;;;0.50;0.50;;;;;;;;;;5003155;28;20072;-74
2021/05/16 00:13:10;;;;;;;0.70;0.70;;;;;;;;;;4989757;28;20044;-75
2021/05/16 00:15:36;;;;;;;0.60;0.60;;;;;;;;;;4988456;28;20400;-75
2021/05/16 00:18:01;;;;;;;0.60;0.60;;;;;;;;;;4988604;28;20118;-76
2021/05/16 00:20:28;;;;;;;0.70;0.70;;;;;;;;;;4988088;28;20508;-76
2021/05/16 00:22:53;;;;;;;0.60;0.60;;;;;;;;;;4988332;28;20037;-76
2021/05/16 00:25:19;;;;;;;0.60;0.60;;;;;;;;;;4988215;28;20054;-76
2021/05/16 00:27:45;;;;;;;0.70;0.70;;;;;;;;;;4988886;28;20014;-76
2021/05/16 00:30:11;;;;;;;0.60;0.60;;;;;;;;;;4987721;28;20049;-76
2021/05/16 00:32:36;;;;;;;0.68;0.68;;;;;;;;;;4989610;28;20068;-76
2021/05/16 00:35:03;;;;;;;0.60;0.60;;;;;;;;;;4988245;28;20053;-76
2021/05/16 00:37:28;;;;;;;0.70;0.70;;;;;;;;;;4988013;28;20035;-76
2021/05/16 00:39:53;;;;;;;0.60;0.60;;;;;;;;;;4988697;28;20034;-76
2021/05/16 00:42:18;;;;;;;0.55;0.55;;;;;;;;;;4989472;28;20034;-76
2021/05/16 00:45:02;;;;;;;0.60;0.60;;;;;;;;;;4988017;28;20022;-76
2021/05/16 00:47:28;;;;;;;0.60;0.60;;;;;;;;;;4989652;28;20105;-76
2021/05/16 00:49:55;;;;;;;0.60;0.60;;;;;;;;;;4989307;28;20094;-76
2021/05/16 00:52:23;;;;;;;0.70;0.70;;;;;;;;;;4988203;28;20030;-76
2021/05/16 00:54:49;;;;;;;0.60;0.60;;;;;;;;;;4987514;28;20515;-76
2021/05/16 00:57:14;;;;;;;0.70;0.70;;;;;;;;;;4989213;28;20034;-76
2021/05/16 00:59:40;;;;;;;0.70;0.70;;;;;;;;;;4987948;28;20030;-76
2021/05/16 01:02:05;;;;;;;0.63;0.63;;;;;;;;;;4987618;28;20033;-76
2021/05/16 01:04:30;;;;;;;0.60;0.60;;;;;;;;;;4988885;28;20034;-76
2021/05/16 01:06:58;;;;;;;0.60;0.60;;;;;;;;;;4987594;28;20054;-76
2021/05/16 01:09:23;;;;;;;;;;;;;;;;;;4987926;28;20026;-75
2021/05/16 01:11:49;;;;;;;0.50;0.50;;;;;;;;;;4989546;28;19905;-75
2021/05/16 01:14:21;;;;;;;0.60;0.60;;;;;;;;;;4993273;28;20495;-75
2021/05/16 01:16:46;;;;;;;0.60;0.60;;;;;;;;;;4993516;28;20038;-76
2021/05/16 01:19:12;;;;;;;0.50;0.50;;;;;;;;;;4992101;28;20034;-75
2021/05/16 01:21:37;;;;;;;0.52;0.52;;;;;;;;;;4992304;28;20033;-75
2021/05/16 01:24:11;;;;;;;0.60;0.60;;;;;;;;;;4991842;28;20023;-76
2021/05/16 01:26:36;;;;;;;0.60;0.60;;;;;;;;;;4991657;28;20034;-75
2021/05/16 01:29:02;;;;;;;0.50;0.50;;;;;;;;;;4993001;28;20026;-76
2021/05/16 01:31:29;;;;;;;0.60;0.60;;;;;;;;;;4992723;28;20117;-75
2021/05/16 01:33:54;;;;;;;0.68;0.68;;;;;;;;;;4990712;28;20022;-75
2021/05/16 01:36:20;;;;;;;0.57;0.57;;;;;;;;;;5024119;28;20026;-75
2021/05/16 01:38:45;;;;;;;0.60;0.60;;;;;;;;;;4992658;28;20035;-75
2021/05/16 01:41:10;;;;;;;0.55;0.55;;;;;;;;;;4992416;28;20058;-74
2021/05/16 01:43:38;;;;;;;0.63;0.63;;;;;;;;;;4992553;28;20022;-75
2021/05/16 01:46:04;;;;;;;0.70;0.70;;;;;;;;;;5028800;28;20029;-75
2021/05/16 01:48:29;;;;;;;0.63;0.63;;;;;;;;;;5012503;28;20499;-75
2021/05/16 01:50:55;;;;;;;0.60;0.60;;;;;;;;;;5043083;28;20034;-74
2021/05/16 01:53:21;;;;;;;0.60;0.60;;;;;;;;;;5043665;28;20141;-74
2021/05/16 01:55:48;;;;;;;0.60;0.60;;;;;;;;;;5027319;28;20022;-75
2021/05/16 01:58:14;;;;;;;0.50;0.50;;;;;;;;;;5043932;28;20033;-74
2021/05/16 02:00:40;;;;;;;0.60;0.60;;;;;;;;;;5027045;28;20026;-74
2021/05/16 02:03:06;;;;;;;0.60;0.60;;;;;;;;;;5011931;28;20459;-74
2021/05/16 02:05:32;;;;;;;0.50;0.50;;;;;;;;;;5011845;28;20500;-74
2021/05/16 02:08:01;;;;;;;0.63;0.63;;;;;;;;;;5012038;28;20076;-74
2021/05/16 02:10:26;;;;;;;0.50;0.50;;;;;;;;;;5010403;28;20030;-73
2021/05/16 02:12:54;;;;;;;0.50;0.50;;;;;;;;;;5011311;28;20032;-73
2021/05/16 02:15:20;;;;;;;0.60;0.60;;;;;;;;;;5011919;28;20498;-74
2021/05/16 02:17:45;;;;;;;0.63;0.63;;;;;;;;;;5011813;28;20476;-74
2021/05/16 02:20:12;;;;;;;0.55;0.55;;;;;;;;;;5011772;28;20029;-74
2021/05/16 02:22:38;;;;;;;0.55;0.55;;;;;;;;;;4994121;28;20019;-74
2021/05/16 02:25:03;;;;;;;0.60;0.60;;;;;;;;;;4989781;28;20555;-74
2021/05/16 02:27:29;;;;;;;0.60;0.60;;;;;;;;;;4992034;28;20117;-73
2021/05/16 02:29:54;;;;;;;0.60;0.60;;;;;;;;;;4991275;28;20092;-76
2021/05/16 02:32:19;;;;;;;0.52;0.52;;;;;;;;;;4989903;28;20473;-73
2021/05/16 02:34:44;;;;;;;0.50;0.50;;;;;;;;;;4991701;28;20014;-74
2021/05/16 02:37:10;;;;;;;0.55;0.55;;;;;;;;;;4991055;28;20442;-74
2021/05/16 02:39:37;;;;;;;0.60;0.60;;;;;;;;;;4992145;28;20109;-73
2021/05/16 02:42:02;;;;;;;;;;;;;;;;;;4991680;28;20504;-74
2021/05/16 02:44:28;;;;;;;0.50;0.50;;;;;;;;;;4992210;28;19967;-73
2021/05/16 02:46:54;;;;;;;0.60;0.60;;;;;;;;;;4991861;28;20720;-74
2021/05/16 02:49:19;;;;;;;0.63;0.63;;;;;;;;;;4990332;28;20053;-74
2021/05/16 02:51:45;;;;;;;0.68;0.68;;;;;;;;;;4991409;28;20015;-73
2021/05/16 02:54:10;;;;;;;0.60;0.60;;;;;;;;;;4990103;28;20033;-74
2021/05/16 02:56:35;;;;;;;0.70;0.70;;;;;;;;;;4991552;28;20030;-74
2021/05/16 02:59:01;;;;;;;0.60;0.60;;;;;;;;;;5022942;28;20115;-73
2021/05/16 03:01:26;;;;;;;0.70;0.70;;;;;;;;;;4989844;28;20041;-74
2021/05/16 03:03:51;;;;;;;0.70;0.70;;;;;;;;;;4991003;28;20026;-73
2021/05/16 03:06:16;;;;;;;0.60;0.60;;;;;;;;;;4990025;28;20101;-73
2021/05/16 03:08:42;;;;;;;0.60;0.60;;;;;;;;;;4991796;28;20391;-73
2021/05/16 03:11:12;;;;;;;0.70;0.70;;;;;;;;;;4991072;28;20112;-74
2021/05/16 03:13:37;;;;;;;0.68;0.68;;;;;;;;;;4990666;28;20031;-74
2021/05/16 03:16:02;;;;;;;0.60;0.60;;;;;;;;;;4990033;28;20032;-74
2021/05/16 03:18:28;;;;;;;0.60;0.60;;;;;;;;;;4991312;28;20109;-73
2021/05/16 03:20:53;;;;;;;0.57;0.57;;;;;;;;;;4993183;28;20443;-73
2021/05/16 03:23:18;;;;;;;0.60;0.60;;;;;;;;;;4994536;28;20389;-73
2021/05/16 03:25:44;;;;;;;0.60;0.60;;;;;;;;;;4990861;28;20413;-74
2021/05/16 03:28:10;;;;;;;0.50;0.50;;;;;;;;;;4991056;28;20101;-73
2021/05/16 03:30:35;;;;;;;0.50;0.50;;;;;;;;;;4991239;28;20102;-75
2021/05/16 03:33:00;;;;;;;0.60;0.60;;;;;;;;;;5005782;28;20022;-74
2021/05/16 03:35:25;;;;;;;0.60;0.60;;;;;;;;;;4991074;28;20496;-74
2021/05/16 03:37:51;;;;;;;0.50;0.50;;;;;;;;;;4990534;28;20030;-75
2021/05/16 03:40:17;;;;;;;0.60;0.60;;;;;;;;;;5005960;28;20034;-73
2021/05/16 03:42:42;;;;;;;0.60;0.60;;;;;;;;;;4989679;28;20042;-74
2021/05/16 03:45:08;;;;;;;0.60;0.60;;;;;;;;;;4990505;28;20054;-74
2021/05/16 03:47:34;;;;;;;0.57;0.57;;;;;;;;;;4989371;28;20068;-74
2021/05/16 03:50:00;;;;;;;0.70;0.70;;;;;;;;;;4988575;28;20014;-74
2021/05/16 03:52:26;;;;;;;0.60;0.60;;;;;;;;;;4989332;28;20023;-74
2021/05/16 03:54:52;;;;;;;0.60;0.60;;;;;;;;;;4990582;28;20022;-74
2021/05/16 03:57:22;;;;;;;0.68;0.68;;;;;;;;;;4990260;28;20108;-73
2021/05/16 03:59:47;;;;;;;0.70;0.70;;;;;;;;;;4990614;28;20431;-73
2021/05/16 04:02:12;;;;;;;0.60;0.60;;;;;;;;;;4990584;28;20026;-73
2021/05/16 04:04:37;;;;;;;0.60;0.60;;;;;;;;;;4988710;28;20436;-74
2021/05/16 04:07:03;;;;;;;0.60;0.60;;;;;;;;;;4989413;28;20025;-74
2021/05/16 04:09:28;;;;;;;0.60;0.60;;;;;;;;;;4990087;28;20026;-73
2021/05/16 04:11:53;;;;;;;0.63;0.63;;;;;;;;;;4992994;28;20014;-74
2021/05/16 04:14:22;;;;;;;0.60;0.60;;;;;;;;;;4989730;28;20033;-74
2021/05/16 04:16:47;;;;;;;0.60;0.60;;;;;;;;;;4989961;28;20288;-74
2021/05/16 04:19:13;;;;;;;0.60;0.60;;;;;;;;;;4990253;28;20109;-74
2021/05/16 04:21:38;;;;;;;0.60;0.60;;;;;;;;;;4988672;28;20034;-74
2021/05/16 04:24:04;;;;;;;0.50;0.50;;;;;;;;;;4989738;28;20044;-74
2021/05/16 04:26:29;;;;;;;0.65;0.65;;;;;;;;;;4988524;28;20030;-74
2021/05/16 04:28:54;;;;;;;0.60;0.60;;;;;;;;;;4989741;28;20396;-74
2021/05/16 04:31:22;;;;;;;0.70;0.70;;;;;;;;;;5021504;28;20121;-74
2021/05/16 04:33:47;;;;;;;;;;;;;;;;;;4988686;28;20041;-74
2021/05/16 04:36:12;;;;;;;0.70;0.70;;;;;;;;;;4989844;28;20062;-74
2021/05/16 04:38:37;;;;;;;0.52;0.52;;;;;;;;;;4989846;28;20097;-74
2021/05/16 04:41:03;;;;;;;0.50;0.50;;;;;;;;;;4989468;28;20026;-74
2021/05/16 04:43:28;;;;;;;0.55;0.55;;;;;;;;;;4989814;28;20472;-74
2021/05/16 04:45:55;;;;;;;0.60;0.60;;;;;;;;;;5021009;28;20560;-74
2021/05/16 04:48:21;;;;;;;;;;;;;;;;;;4988686;28;20022;-74
2021/05/16 04:50:46;;;;;;;0.60;0.60;;;;;;;;;;4988182;28;19916;-74
2021/05/16 04:53:11;;;;;;;0.60;0.60;;;;;;;;;;4989524;28;20053;-74
2021/05/16 04:55:36;;;;;;;0.60;0.60;;;;;;;;;;4989967;28;20030;-73
2021/05/16 04:58:02;;;;;;;0.60;0.60;;;;;;;;;;4989646;28;20081;-73
2021/05/16 05:00:27;;;;;;;0.60;0.60;;;;;;;;;;4989742;28;20014;-73
2021/05/16 05:02:52;;;;;;;0.60;0.60;;;;;;;;;;5005864;28;20054;-74
2021/05/16 05:05:18;;;;;;;0.50;0.50;;;;;;;;;;4993255;28;20052;-74
2021/05/16 05:07:43;;;;;;;0.60;0.60;;;;;;;;;;4989052;28;20058;-74
2021/05/16 05:10:08;;;;;;;0.60;0.60;;;;;;;;;;4989947;28;20081;-75
2021/05/16 05:12:36;;;;;;;0.50;0.50;;;;;;;;;;4987221;28;20510;-74
2021/05/16 05:15:02;;;;;;;0.50;0.50;;;;;;;;;;5004387;28;20419;-76
2021/05/16 05:17:27;;;;;;;0.52;0.52;;;;;;;;;;5018238;28;20117;-73
2021/05/16 05:19:52;;;;;;;0.57;0.57;;;;;;;;;;4987911;28;20053;-74
2021/05/16 05:22:20;;;;;;;0.52;0.52;;;;;;;;;;4987674;28;20480;-74
2021/05/16 05:24:45;;;;;;;;;;;;;;;;;;4989878;28;20026;-74
2021/05/16 05:27:10;;;;;;;0.55;0.55;;;;;;;;;;4990001;28;20368;-74
2021/05/16 05:29:37;;;;;;;0.50;0.50;;;;;;;;;;4989306;28;20034;-74
2021/05/16 05:32:03;;;;;;;0.55;0.55;;;;;;;;;;4989535;28;20101;-74
2021/05/16 05:34:30;;;;;;;0.50;0.50;;;;;;;;;;4988902;28;20118;-74
2021/05/16 05:36:56;;;;;;;0.55;0.55;;;;;;;;;;4989414;28;20026;-74
2021/05/16 05:39:22;;;;;;;0.60;0.60;;;;;;;;;;4989375;28;20041;-75
2021/05/16 05:41:48;;;;;;;0.57;0.57;;;;;;;;;;4989028;28;20030;-74
2021/05/16 05:44:14;;;;;;;0.60;0.60;;;;;;;;;;4989388;28;20027;-74
2021/05/16 05:46:39;;;;;;;0.50;0.50;;;;;;;;;;4989892;28;20022;-74
2021/05/16 05:49:04;;;;;;;0.50;0.50;;;;;;;;;;4989259;28;20032;-74
2021/05/16 05:51:29;;;;;;;0.50;0.50;;;;;;;;;;4988738;28;20031;-74
2021/05/16 05:53:55;;;;;;;0.50;0.50;;;;;;;;;;4988188;28;20065;-74
2021/05/16 05:56:20;;;;;;;0.50;0.50;;;;;;;;;;4989274;28;20126;-75
2021/05/16 05:58:45;;;;;;;0.50;0.50;;;;;;;;;;4992347;28;20050;-74
2021/05/16 06:01:11;;;;;;;0.40;0.40;;;;;;;;;;4995588;28;20084;-73
2021/05/16 06:03:36;;;;;;;0.50;0.50;;;;;;;;;;4999872;28;20575;-74
2021/05/16 06:06:04;;;;;;;0.40;0.40;;;;;;;;;;4991163;28;20397;-74
2021/05/16 06:08:29;;;;;;;0.40;0.40;;;;;;;;;;4992880;28;20033;-74
2021/05/16 06:10:56;;;;;;;0.40;0.40;;;;;;;;;;4992608;28;20340;-75
2021/05/16 06:13:22;;;;;;;0.43;0.43;;;;;;;;;;4990833;28;20022;-75
2021/05/16 06:15:49;;;;;;;0.40;0.40;;;;;;;;;;4992806;28;20077;-75
2021/05/16 06:18:14;;;;;;;;;;;;;;;;;;4993129;28;20480;-75
2021/05/16 06:20:40;;;;;;;0.50;0.50;;;;;;;;;;4992631;28;19913;-74
2021/05/16 06:23:07;;;;;;;0.40;0.40;;;;;;;;;;4992446;28;20022;-74
2021/05/16 06:25:33;;;;;;;0.50;0.50;;;;;;;;;;4992685;28;20027;-73
2021/05/16 06:27:58;;;;;;;0.50;0.50;;;;;;;;;;4992931;28;20014;-74
2021/05/16 06:30:24;;;;;;;0.50;0.50;;;;;;;;;;4992286;28;20050;-74
2021/05/16 06:32:49;;;;;;;0.40;0.40;;;;;;;;;;4991662;28;20023;-74
2021/05/16 06:35:17;;;;;;;0.60;0.60;;;;;;;;;;4992315;28;20393;-75
2021/05/16 06:37:42;;;;;;;0.60;0.60;;;;;;;;;;4992187;28;20027;-75
2021/05/16 06:40:08;;;;;;;0.50;0.50;;;;;;;;;;4990571;28;20034;-74
2021/05/16 06:42:33;;;;;;;0.50;0.50;;;;;;;;;;4990336;28;20040;-74
2021/05/16 06:44:58;;;;;;;0.50;0.50;;;;;;;;;;4990083;28;20046;-74
2021/05/16 06:47:24;;;;;;;0.60;0.60;;;;;;;;;;4991743;28;20065;-75
2021/05/16 06:49:52;;;;;;;0.50;0.50;;;;;;;;;;4991733;28;20119;-74
2021/05/16 06:52:18;;;;;;;0.50;0.50;;;;;;;;;;5004541;28;20014;-74
2021/05/16 06:54:43;;;;;;;0.50;0.50;;;;;;;;;;4991584;28;20026;-74
2021/05/16 06:57:08;;;;;;;0.50;0.50;;;;;;;;;;4993855;28;20026;-74
2021/05/16 06:59:34;;;;;;;0.40;0.40;;;;;;;;;;4991952;28;20033;-74
2021/05/16 07:01:59;;;;;;;0.60;0.60;;;;;;;;;;4990213;28;20086;-70
2021/05/16 07:04:24;;;;;;;0.50;0.50;;;;;;;;;;4991309;28;20031;-73
2021/05/16 07:06:50;;;;;;;0.50;0.50;;;;;;;;;;4991570;28;20023;-73
2021/05/16 07:09:15;;;;;;;0.50;0.50;;;;;;;;;;4989799;28;20065;-73
2021/05/16 07:11:42;;;;;;;0.40;0.40;;;;;;;;;;4989737;28;20058;-72
2021/05/16 07:14:08;;;;;;;0.50;0.50;;;;;;;;;;4991611;28;20073;-73
2021/05/16 07:16:33;;;;;;;0.50;0.50;;;;;;;;;;4991317;28;20129;-72
2021/05/16 07:18:58;;;;;;;0.50;0.50;;;;;;;;;;4991563;28;20026;-73
2021/05/16 07:21:24;;;;;;;0.50;0.50;;;;;;;;;;4989392;28;20037;-73
2021/05/16 07:23:49;;;;;;;0.43;0.43;;;;;;;;;;4991463;28;20022;-73
2021/05/16 07:26:14;;;;;;;0.50;0.50;;;;;;;;;;4991321;28;20125;-73
2021/05/16 07:28:39;;;;;;;0.40;0.40;;;;;;;;;;4991484;28;20098;-73
2021/05/16 07:31:05;;;;;;;0.52;0.52;;;;;;;;;;4990651;28;20025;-73
2021/05/16 07:33:32;;;;;;;0.40;0.40;;;;;;;;;;4989284;28;20477;-73
2021/05/16 07:35:58;;;;;;;0.40;0.40;;;;;;;;;;4991101;28;20052;-73
2021/05/16 07:38:24;;;;;;;0.40;0.40;;;;;;;;;;4990930;28;20076;-73
2021/05/16 07:40:49;;;;;;;0.40;0.40;;;;;;;;;;4990722;28;20030;-73
2021/05/16 07:43:14;;;;;;;0.50;0.50;;;;;;;;;;4990530;28;20036;-75
2021/05/16 07:45:42;;;;;;;0.35;0.35;;;;;;;;;;4990561;28;20102;-73
2021/05/16 07:48:07;;;;;;;0.40;0.40;;;;;;;;;;4990538;28;20026;-73
2021/05/16 07:50:32;;;;;;;0.50;0.50;;;;;;;;;;4990887;28;20033;-73
2021/05/16 07:52:58;;;;;;;0.40;0.40;;;;;;;;;;4990217;28;20037;-73
2021/05/16 07:55:23;;;;;;;0.38;0.38;;;;;;;;;;4990428;28;20097;-73
2021/05/16 07:57:48;;;;;;;0.30;0.30;;;;;;;;;;4989214;28;20428;-73
2021/05/16 08:00:14;;;;;;;0.30;0.30;;;;;;;;;;4989261;28;20653;-73
2021/05/16 08:02:40;;;;;;;0.40;0.40;;;;;;;;;;4990547;28;20057;-73
2021/05/16 08:05:06;;;;;;;0.30;0.30;;;;;;;;;;4988568;28;20613;-73
2021/05/16 08:07:31;;;;;;;0.30;0.30;;;;;;;;;;4987904;28;20113;-73
2021/05/16 08:09:56;;;;;;;0.30;0.30;;;;;;;;;;4987626;28;20026;-73
2021/05/16 08:12:22;;;;;;;0.40;0.40;;;;;;;;;;4988165;28;20045;-73
2021/05/16 08:14:47;;;;;;;0.40;0.40;;;;;;;;;;4988981;28;20034;-73
2021/05/16 08:17:14;;;;;;;0.30;0.30;;;;;;;;;;4987959;28;20085;-73
2021/05/16 08:19:39;;;;;;;0.28;0.28;;;;;;;;;;4987965;28;20282;-73
2021/05/16 08:22:09;;;;;;;0.30;0.30;;;;;;;;;;4988567;28;20065;-73
2021/05/16 08:24:35;;;;;;;0.35;0.35;;;;;;;;;;4984774;28;20030;-74
2021/05/16 08:27:00;;;;;;;0.30;0.30;;;;;;;;;;4991707;28;20025;-73
2021/05/16 08:29:25;;;;;;;0.30;0.30;;;;;;;;;;4984055;28;20029;-74
2021/05/16 08:31:51;;;;;;;0.30;0.30;;;;;;;;;;4985341;28;20026;-74
2021/05/16 08:34:16;;;;;;;0.40;0.40;;;;;;;;;;5017315;28;20030;-71
2021/05/16 08:36:41;;;;;;;0.32;0.32;;;;;;;;;;5004495;28;20468;-73
2021/05/16 08:39:07;;;;;;;0.40;0.40;;;;;;;;;;5006511;28;20049;-74
2021/05/16 08:41:33;;;;;;;0.40;0.40;;;;;;;;;;5003905;28;20441;-74
2021/05/16 08:43:58;;;;;;;0.40;0.40;;;;;;;;;;5005211;28;20049;-74
2021/05/16 08:46:24;;;;;;;0.30;0.30;;;;;;;;;;5020701;28;20104;-73
2021/05/16 08:48:49;;;;;;;0.30;0.30;;;;;;;;;;5003316;28;20064;-73
2021/05/16 08:51:15;;;;;;;0.40;0.40;;;;;;;;;;5006036;28;20103;-74
2021/05/16 08:53:41;;;;;;;0.40;0.40;;;;;;;;;;5004795;28;20038;-70
2021/05/16 08:56:07;;;;;;;0.30;0.30;;;;;;;;;;5005654;28;20492;-74
2021/05/16 08:58:32;;;;;;;0.30;0.30;;;;;;;;;;5016833;28;20089;-75
2021/05/16 09:00:58;;;;;;;0.40;0.40;;;;;;;;;;4988294;28;20049;-74
2021/05/16 09:03:24;;;;;;;0.30;0.30;;;;;;;;;;4987884;28;20462;-74
2021/05/16 09:05:51;;;;;;;0.40;0.40;;;;;;;;;;4993438;28;20041;-74
2021/05/16 09:08:22;;;;;;;0.40;0.40;;;;;;;;;;5005453;28;20087;-76
2021/05/16 09:10:57;;;;;;;0.30;0.30;;;;;;;;;;5004458;28;20110;-75
2021/05/16 09:13:23;;;;;;;0.40;0.40;;;;;;;;;;5024058;28;20034;-74
2021/05/16 09:16:02;;;;;;;0.35;0.35;;;;;;;;;;5008811;28;20038;-74
2021/05/16 09:18:34;;;;;;;0.40;0.40;;;;;;;;;;5001438;28;20173;-74
2021/05/16 09:21:22;;;;;;;0.40;0.40;;;;;;;;;;4994655;28;20039;-73
2021/05/16 09:24:00;;;;;;;0.30;0.30;;;;;;;;;;4975426;28;20509;-75
2021/05/16 09:26:28;;;;;;;0.30;0.30;;;;;;;;;;4964623;28;67377;-73
2021/05/16 09:28:54;;;;;;;0.30;0.30;;;;;;;;;;4971016;28;20049;-73
2021/05/16 09:31:35;;;;;;;0.30;0.30;;;;;;;;;;4985634;28;20408;-75
2021/05/16 09:34:09;;;;;;;0.40;0.40;;;;;;;;;;4988975;28;20081;-75
2021/05/16 09:36:39;;;;;;;0.30;0.30;;;;;;;;;;4989590;28;20493;-75
2021/05/16 09:39:30;;;;;;;0.32;0.32;;;;;;;;;;4987152;28;20045;-75
2021/05/16 09:42:05;;;;;;;0.32;0.32;;;;;;;;;;5007781;28;20051;-76
2021/05/16 09:44:30;;;;;;;0.30;0.30;;;;;;;;;;5012460;28;20131;-76
2021/05/16 09:47:06;;;;;;;0.40;0.40;;;;;;;;;;4997640;28;20088;-75
2021/05/16 09:49:32;;;;;;;0.35;0.35;;;;;;;;;;5007053;28;20038;-76
2021/05/16 09:51:57;;;;;;;0.30;0.30;;;;;;;;;;5004714;28;20045;-76
2021/05/16 09:54:22;;;;;;;0.30;0.30;;;;;;;;;;4986220;28;20050;-76
2021/05/16 09:56:49;;;;;;;0.30;0.30;;;;;;;;;;4986212;28;20445;-75
2021/05/16 09:59:16;;;;;;;0.40;0.40;;;;;;;;;;5003091;28;20268;-76
2021/05/16 10:01:41;;;;;;;0.40;0.40;;;;;;;;;;4999573;28;20496;-75
2021/05/16 10:04:07;;;;;;;0.30;0.30;;;;;;;;;;5002839;28;20038;-76
2021/05/16 10:06:33;;;;;;;0.30;0.30;;;;;;;;;;4986314;28;20069;-77
2021/05/16 10:08:58;;;;;;;0.30;0.30;;;;;;;;;;4986167;28;20453;-76
2021/05/16 10:11:25;;;;;;;0.30;0.30;;;;;;;;;;4985092;28;20049;-76
2021/05/16 10:13:53;;;;;;;0.30;0.30;;;;;;;;;;4986552;28;20668;-76
2021/05/16 10:16:19;;;;;;;0.20;0.20;;;;;;;;;;5002682;28;20456;-74
2021/05/16 10:18:46;;;;;;;0.30;0.30;;;;;;;;;;4990609;28;20041;-75
2021/05/16 10:21:11;;;;;;;0.20;0.20;;;;;;;;;;4989851;28;20638;-76
2021/05/16 10:23:37;;;;;;;0.30;0.30;;;;;;;;;;4984231;28;20034;-73
2021/05/16 10:26:14;;;;;;;0.30;0.30;;;;;;;;;;4988128;28;20046;-73
2021/05/16 10:28:39;;;;;;;;;;;;;;;;;;4988284;28;20038;-73
2021/05/16 10:31:10;;;;;;;0.40;0.40;;;;;;;;;;4990927;28;19921;-73
2021/05/16 10:33:36;;;;;;;0.30;0.30;;;;;;;;;;4986847;28;20404;-73
2021/05/16 10:36:02;;;;;;;0.40;0.40;;;;;;;;;;4989249;28;20057;-76
2021/05/16 10:38:33;;;;;;;0.30;0.30;;;;;;;;;;4985291;28;20472;-75
2021/05/16 10:41:25;;;;;;;0.20;0.20;;;;;;;;;;4980248;28;20039;-72
2021/05/16 10:43:50;;;;;;;0.20;0.20;;;;;;;;;;4988148;28;20788;-72
2021/05/16 10:46:43;;;;;;;0.22;0.22;;;;;;;;;;4988780;28;20030;-73
2021/05/16 10:49:24;;;;;;;0.20;0.20;;;;;;;;;;4983052;28;20041;-73
2021/05/16 10:51:50;;;;;;;0.30;0.30;;;;;;;;;;4987551;28;20034;-76
2021/05/16 10:54:29;;;;;;;0.30;0.30;;;;;;;;;;4988019;28;20399;-73
2021/05/16 10:57:09;;;;;;;0.38;0.38;;;;;;;;;;4987427;28;20447;-76
2021/05/16 10:59:38;;;;;;;0.35;0.35;;;;;;;;;;4981317;28;20145;-76
2021/05/16 11:02:04;;;;;;;0.30;0.30;;;;;;;;;;4986431;28;20045;-76
2021/05/16 11:04:58;;;;;;;0.30;0.30;;;;;;;;;;4992640;28;20035;-76
2021/05/16 11:07:33;;;;;;;0.20;0.20;;;;;;;;;;4991449;28;20104;-76
2021/05/16 11:10:17;;;;;;;0.20;0.20;;;;;;;;;;4986773;28;20081;-76
2021/05/16 11:12:45;;;;;;;0.30;0.30;;;;;;;;;;4987169;28;20116;-76
2021/05/16 11:15:10;;;;;;;;;;;;;;;;;;4987414;28;20042;-76
2021/05/16 11:17:35;;;;;;;0.30;0.30;;;;;;;;;;4983541;28;19910;-76
2021/05/16 11:20:00;;;;;;;0.30;0.30;;;;;;;;;;4989297;28;20038;-76
2021/05/16 11:22:25;;;;;;;0.20;0.20;;;;;;;;;;4992742;28;20499;-75
2021/05/16 11:24:51;;;;;;;0.32;0.32;;;;;;;;;;5007820;28;20446;-76
2021/05/16 11:27:20;;;;;;;0.25;0.25;;;;;;;;;;5003643;28;20030;-73
2021/05/16 11:29:56;;;;;;;0.20;0.20;;;;;;;;;;4985175;28;20044;-73
2021/05/16 11:32:28;;;;;;;0.20;0.20;;;;;;;;;;4988132;28;20036;-73
2021/05/16 11:35:00;;;;;;;0.10;0.10;;;;;;;;;;4985856;28;20156;-73
2021/05/16 11:37:25;;;;;;;0.10;0.10;;;;;;;;;;4987565;28;20046;-74
2021/05/16 11:39:53;;;;;;;0.10;0.10;;;;;;;;;;4985766;28;21136;-73
2021/05/16 11:42:34;;;;;;;0.10;0.10;;;;;;;;;;4984366;28;20046;-70
2021/05/16 11:44:59;;;;;;;0.10;0.10;;;;;;;;;;4987672;28;20042;-72
2021/05/16 11:47:34;;;;;;;0.10;0.10;;;;;;;;;;4986980;28;20093;-72
2021/05/16 11:49:59;;;;;;;0.05;0.05;;;;;;;;;;4972568;28;20130;-71
2021/05/16 11:52:25;;;;;;;0.20;0.20;;;;;;;;;;4983689;28;20132;-74
2021/05/16 11:54:50;;;;;;;0.00;0.00;;;;;;;;;;5001875;28;20050;-74
2021/05/16 11:57:16;;;;;;;0.10;0.10;;;;;;;;;;5032918;28;20042;-74
2021/05/16 11:59:41;;;;;;;0.10;0.10;;;;;;;;;;5005682;28;20042;-75
2021/05/16 12:02:07;;;;;;;0.10;0.10;;;;;;;;;;5007906;28;20455;-74
2021/05/16 12:04:39;;;;;;;0.10;0.10;;;;;;;;;;5009371;28;20037;-74
2021/05/16 12:07:04;;;;;;;0.00;0.00;;;;;;;;;;5015858;28;20048;-75
2021/05/16 12:09:36;;;;;;;0.10;0.10;;;;;;;;;;4990816;28;20038;-74
2021/05/16 12:12:02;;;;;;;0.10;0.10;;;;;;;;;;4986840;28;20049;-75
2021/05/16 12:14:28;;;;;;;0.00;0.00;;;;;;;;;;4988373;28;20046;-74
2021/05/16 12:17:02;;;;;;;0.00;0.00;;;;;;;;;;5002728;28;20065;-76
2021/05/16 12:19:37;;;;;;;0.10;0.10;;;;;;;;;;4997843;28;20037;-75
2021/05/16 12:22:03;;;;;;;0.10;0.10;;;;;;;;;;4998675;28;20121;-77
2021/05/16 12:24:29;;;;;;;0.10;0.10;;;;;;;;;;4983590;28;20733;-77
2021/05/16 12:26:54;;;;;;;;;;;;;;;;;;5007885;28;20622;-77
2021/05/16 12:29:23;;;;;;;0.20;0.20;;;;;;;;;;4994811;28;20303;-76
2021/05/16 12:31:48;;;;;;;0.08;0.08;;;;;;;;;;5002063;28;20160;-75
2021/05/16 12:34:17;;;;;;;0.13;0.13;;;;;;;;;;4987398;28;20130;-75
2021/05/16 12:36:49;;;;;;;0.00;0.00;;;;;;;;;;4985039;28;20038;-75
2021/05/16 12:39:32;;;;;;;0.00;0.00;;;;;;;;;;4977962;28;20077;-76
2021/05/16 12:41:58;;;;;;;0.00;0.00;;;;;;;;;;4976588;28;20050;-77
2021/05/16 12:44:24;;;;;;;0.10;0.10;;;;;;;;;;4985158;28;20110;-77
2021/05/16 12:46:50;;;;;;;0.10;0.10;;;;;;;;;;4996413;28;20455;-76
2021/05/16 12:49:22;;;;;;;0.10;0.10;;;;;;;;;;4991550;28;20038;-76
2021/05/16 12:51:54;;;;;;;0.10;0.10;;;;;;;;;;4984873;28;20523;-76
2021/05/16 12:54:21;;;;;;;0.10;0.10;;;;;;;;;;4993509;28;20046;-76
2021/05/16 12:56:49;;;;;;;;;;;;;;;;;;4990402;28;20094;-76
2021/05/16 12:59:28;;;;;;;0.10;0.10;;;;;;;;;;4997065;28;20417;-75
2021/05/16 13:02:07;;;;;;;0.10;0.10;;;;;;;;;;5022051;28;20051;-75
2021/05/16 13:04:43;;;;;;;0.20;0.20;;;;;;;;;;5001096;28;20038;-76
2021/05/16 13:07:11;;;;;;;0.10;0.10;;;;;;;;;;5002351;28;20117;-75
2021/05/16 13:09:36;;;;;;;0.20;0.20;;;;;;;;;;5003199;28;20033;-76
2021/05/16 13:12:01;;;;;;;0.10;0.10;;;;;;;;;;5016852;28;20032;-70
2021/05/16 13:14:34;;;;;;;0.10;0.10;;;;;;;;;;5002348;28;20516;-70
2021/05/16 13:17:14;;;;;;;0.10;0.10;;;;;;;;;;5034807;28;20022;-70
2021/05/16 13:19:41;;;;;;;0.10;0.10;;;;;;;;;;5003616;28;20029;-70
2021/05/16 13:22:26;;;;;;;0.10;0.10;;;;;;;;;;5005586;28;20033;-70
2021/05/16 13:24:54;;;;;;;0.25;0.25;;;;;;;;;;5005410;28;20041;-70
2021/05/16 13:27:19;;;;;;;0.10;0.10;;;;;;;;;;5021460;28;20061;-70
2021/05/16 13:29:49;;;;;;;0.20;0.20;;;;;;;;;;5004540;28;20037;-70
2021/05/16 13:32:16;;;;;;;0.22;0.22;;;;;;;;;;5007362;28;20285;-70
2021/05/16 13:34:41;;;;;;;0.20;0.20;;;;;;;;;;5005749;28;20021;-69
2021/05/16 13:37:09;;;;;;;0.40;0.40;;;;;;;;;;5009887;28;20148;-68
2021/05/16 13:39:34;;;;;;;0.22;0.22;;;;;;;;;;5005896;28;20391;-70
2021/05/16 13:42:00;;;;;;;0.30;0.30;;;;;;;;;;5006655;28;20039;-70
2021/05/16 13:44:26;;;;;;;0.38;0.38;;;;;;;;;;5006445;28;20068;-70
2021/05/16 13:46:51;;;;;;;0.30;0.30;;;;;;;;;;5006794;28;20088;-69
2021/05/16 13:49:16;;;;;;;0.30;0.30;;;;;;;;;;5006504;28;20114;-70
2021/05/16 13:51:41;;;;;;;0.30;0.30;;;;;;;;;;5004498;28;20120;-70
2021/05/16 13:54:08;;;;;;;0.30;0.30;;;;;;;;;;5006869;28;20026;-70
2021/05/16 13:56:33;;;;;;;0.30;0.30;;;;;;;;;;5006624;28;20029;-72
2021/05/16 13:58:59;;;;;;;0.30;0.30;;;;;;;;;;5005895;28;20037;-73
2021/05/16 14:01:24;;;;;;;0.30;0.30;;;;;;;;;;5008091;28;20025;-72
2021/05/16 14:03:49;;;;;;;0.30;0.30;;;;;;;;;;5022918;28;20048;-73
2021/05/16 14:06:14;;;;;;;0.22;0.22;;;;;;;;;;5010329;28;20064;-73
2021/05/16 14:08:42;;;;;;;0.20;0.20;;;;;;;;;;5011508;28;20073;-72
2021/05/16 14:11:08;;;;;;;0.20;0.20;;;;;;;;;;5021836;28;20021;-73
2021/05/16 14:13:34;;;;;;;0.20;0.20;;;;;;;;;;5007280;28;20100;-71
2021/05/16 14:15:59;;;;;;;0.20;0.20;;;;;;;;;;5006361;28;20479;-73
2021/05/16 14:18:24;;;;;;;0.30;0.30;;;;;;;;;;5008126;28;20046;-73
2021/05/16 14:20:49;;;;;;;0.30;0.30;;;;;;;;;;5022507;28;20390;-74
2021/05/16 14:23:15;;;;;;;0.30;0.30;;;;;;;;;;5011849;28;20021;-73
2021/05/16 14:25:40;;;;;;;0.20;0.20;;;;;;;;;;5017311;28;20376;-74
2021/05/16 14:28:05;;;;;;;0.30;0.30;;;;;;;;;;5022054;28;20734;-73
2021/05/16 14:30:31;;;;;;;0.30;0.30;;;;;;;;;;5043944;28;20518;-72
2021/05/16 14:32:56;;;;;;;0.30;0.30;;;;;;;;;;5010324;28;20117;-73
2021/05/16 14:35:21;;;;;;;0.30;0.30;;;;;;;;;;5013554;28;20037;-73
2021/05/16 14:37:47;;;;;;;0.30;0.30;;;;;;;;;;5011435;28;20093;-73
2021/05/16 14:40:12;;;;;;;0.38;0.38;;;;;;;;;;5011951;28;20465;-72
2021/05/16 14:42:37;;;;;;;0.30;0.30;;;;;;;;;;5010646;28;20034;-73
2021/05/16 14:45:03;;;;;;;0.30;0.30;;;;;;;;;;5011041;28;20049;-72